sensor_id;sensor_type;location;lat;lon;timestamp;temperature;humidity
75821;DHT22;64454;51.984;9.838;2023-08-30T00:01:14;16.30;1.00
75821;DHT22;64454;51.984;9.838;2023-08-30T00:03:41;16.30;1.00
75821;DHT22;64454;51.984;9.838;2023-08-30T00:06:08;16.30;1.00
75821;DHT22;64454;51.984;9.838;2023-08-30T00:08:35;16.20;1.00
75821;DHT22;64454;51.984;9.838;2023-08-30T00:11:02;16.10;1.00
75821;DHT22;64454;51.984;9.838;2023-08-30T00:13:30;16.10;1.00
75821;DHT22;64454;51.984;9.838;2023-08-30T00:15:57;16.00;1.00
75821;DHT22;64454;51.984;9.838;2023-08-30T00:18:26;15.90;1.00
75821;DHT22;64454;51.984;9.838;2023-08-30T00:20:53;16.00;1.00
75821;DHT22;64454;51.984;9.838;2023-08-30T00:23:19;15.90;1.00
75821;DHT22;64454;51.984;9.838;2023-08-30T00:25:46;16.00;1.00
75821;DHT22;64454;51.984;9.838;2023-08-30T00:28:14;16.00;1.00
75821;DHT22;64454;51.984;9.838;2023-08-30T00:30:41;16.00;1.00
75821;DHT22;64454;51.984;9.838;2023-08-30T00:33:08;16.00;1.00
75821;DHT22;64454;51.984;9.838;2023-08-30T00:35:36;16.10;1.00
75821;DHT22;64454;51.984;9.838;2023-08-30T00:38:03;16.20;1.00
75821;DHT22;64454;51.984;9.838;2023-08-30T00:40:37;16.20;1.00
75821;DHT22;64454;51.984;9.838;2023-08-30T00:43:05;16.20;1.00
75821;DHT22;64454;51.984;9.838;2023-08-30T00:45:32;16.20;1.00
75821;DHT22;64454;51.984;9.838;2023-08-30T00:47:59;16.20;1.00
75821;DHT22;64454;51.984;9.838;2023-08-30T00:50:26;16.00;1.00
75821;DHT22;64454;51.984;9.838;2023-08-30T00:52:54;15.90;1.00
75821;DHT22;64454;51.984;9.838;2023-08-30T00:55:21;15.80;1.00
75821;DHT22;64454;51.984;9.838;2023-08-30T00:57:48;15.70;1.00
75821;DHT22;64454;51.984;9.838;2023-08-30T01:00:16;15.70;1.00
75821;DHT22;64454;51.984;9.838;2023-08-30T01:02:43;15.70;1.00
75821;DHT22;64454;51.984;9.838;2023-08-30T01:05:11;15.60;1.00
75821;DHT22;64454;51.984;9.838;2023-08-30T01:07:38;15.60;1.00
75821;DHT22;64454;51.984;9.838;2023-08-30T01:10:07;15.60;1.00
75821;DHT22;64454;51.984;9.838;2023-08-30T01:12:40;15.70;1.00
75821;DHT22;64454;51.984;9.838;2023-08-30T01:15:15;15.70;1.00
75821;DHT22;64454;51.984;9.838;2023-08-30T01:17:44;15.70;1.00
75821;DHT22;64454;51.984;9.838;2023-08-30T01:20:15;15.60;1.00
75821;DHT22;64454;51.984;9.838;2023-08-30T01:22:55;15.60;1.00
75821;DHT22;64454;51.984;9.838;2023-08-30T01:25:42;15.70;1.00
75821;DHT22;64454;51.984;9.838;2023-08-30T01:28:16;15.70;1.00
75821;DHT22;64454;51.984;9.838;2023-08-30T01:30:48;15.60;1.00
75821;DHT22;64454;51.984;9.838;2023-08-30T01:33:16;15.60;1.00
75821;DHT22;64454;51.984;9.838;2023-08-30T01:35:45;15.70;1.00
75821;DHT22;64454;51.984;9.838;2023-08-30T01:38:13;15.60;1.00
75821;DHT22;64454;51.984;9.838;2023-08-30T01:40:43;15.70;1.00
75821;DHT22;64454;51.984;9.838;2023-08-30T01:43:12;15.70;1.00
75821;DHT22;64454;51.984;9.838;2023-08-30T01:45:43;15.70;1.00
75821;DHT22;64454;51.984;9.838;2023-08-30T01:48:12;15.70;1.00
75821;DHT22;64454;51.984;9.838;2023-08-30T01:50:41;15.70;1.00
75821;DHT22;64454;51.984;9.838;2023-08-30T01:53:11;15.70;1.00
75821;DHT22;64454;51.984;9.838;2023-08-30T01:55:39;15.50;1.00
75821;DHT22;64454;51.984;9.838;2023-08-30T01:58:07;15.40;1.00
75821;DHT22;64454;51.984;9.838;2023-08-30T02:00:35;15.30;1.00
75821;DHT22;64454;51.984;9.838;2023-08-30T02:03:09;15.30;1.00
75821;DHT22;64454;51.984;9.838;2023-08-30T02:05:41;15.30;1.00
75821;DHT22;64454;51.984;9.838;2023-08-30T02:08:20;15.20;1.00
75821;DHT22;64454;51.984;9.838;2023-08-30T02:10:56;15.20;1.00
75821;DHT22;64454;51.984;9.838;2023-08-30T02:13:28;15.20;1.00
75821;DHT22;64454;51.984;9.838;2023-08-30T02:16:00;15.20;1.00
75821;DHT22;64454;51.984;9.838;2023-08-30T02:18:29;15.30;1.00
75821;DHT22;64454;51.984;9.838;2023-08-30T02:20:57;15.30;1.00
75821;DHT22;64454;51.984;9.838;2023-08-30T02:23:24;15.20;1.00
75821;DHT22;64454;51.984;9.838;2023-08-30T02:25:51;15.30;1.00
75821;DHT22;64454;51.984;9.838;2023-08-30T02:28:20;15.30;1.00
75821;DHT22;64454;51.984;9.838;2023-08-30T02:30:47;15.20;1.00
75821;DHT22;64454;51.984;9.838;2023-08-30T02:33:14;15.20;1.00
75821;DHT22;64454;51.984;9.838;2023-08-30T02:35:42;15.20;1.00
75821;DHT22;64454;51.984;9.838;2023-08-30T02:38:09;15.30;1.00
75821;DHT22;64454;51.984;9.838;2023-08-30T02:40:36;15.30;1.00
75821;DHT22;64454;51.984;9.838;2023-08-30T02:43:03;15.30;1.00
75821;DHT22;64454;51.984;9.838;2023-08-30T02:45:30;15.30;1.00
75821;DHT22;64454;51.984;9.838;2023-08-30T02:47:57;15.30;1.00
75821;DHT22;64454;51.984;9.838;2023-08-30T02:50:24;15.30;1.00
75821;DHT22;64454;51.984;9.838;2023-08-30T02:52:52;15.20;1.00
75821;DHT22;64454;51.984;9.838;2023-08-30T02:55:19;15.20;1.00
75821;DHT22;64454;51.984;9.838;2023-08-30T02:57:46;15.20;1.00
75821;DHT22;64454;51.984;9.838;2023-08-30T03:00:14;15.20;1.00
75821;DHT22;64454;51.984;9.838;2023-08-30T03:02:42;15.20;1.00
75821;DHT22;64454;51.984;9.838;2023-08-30T03:05:09;15.20;1.00
75821;DHT22;64454;51.984;9.838;2023-08-30T03:07:37;15.10;1.00
75821;DHT22;64454;51.984;9.838;2023-08-30T03:10:06;15.00;1.00
75821;DHT22;64454;51.984;9.838;2023-08-30T03:12:33;15.00;1.00
75821;DHT22;64454;51.984;9.838;2023-08-30T03:15:00;14.90;1.00
75821;DHT22;64454;51.984;9.838;2023-08-30T03:17:27;15.00;1.00
75821;DHT22;64454;51.984;9.838;2023-08-30T03:19:54;14.90;1.00
75821;DHT22;64454;51.984;9.838;2023-08-30T03:22:21;15.00;1.00
75821;DHT22;64454;51.984;9.838;2023-08-30T03:24:48;15.00;1.00
75821;DHT22;64454;51.984;9.838;2023-08-30T03:27:17;15.00;1.00
75821;DHT22;64454;51.984;9.838;2023-08-30T03:29:45;15.10;1.00
75821;DHT22;64454;51.984;9.838;2023-08-30T03:32:15;15.10;1.00
75821;DHT22;64454;51.984;9.838;2023-08-30T03:34:44;15.00;1.00
75821;DHT22;64454;51.984;9.838;2023-08-30T03:37:11;15.00;1.00
75821;DHT22;64454;51.984;9.838;2023-08-30T03:39:38;15.00;1.00
75821;DHT22;64454;51.984;9.838;2023-08-30T03:42:05;14.90;1.00
75821;DHT22;64454;51.984;9.838;2023-08-30T03:44:33;14.80;1.00
75821;DHT22;64454;51.984;9.838;2023-08-30T03:47:00;14.80;1.00
75821;DHT22;64454;51.984;9.838;2023-08-30T03:49:27;14.70;1.00
75821;DHT22;64454;51.984;9.838;2023-08-30T03:51:55;14.70;1.00
75821;DHT22;64454;51.984;9.838;2023-08-30T03:54:22;14.80;1.00
75821;DHT22;64454;51.984;9.838;2023-08-30T03:56:48;14.80;1.00
75821;DHT22;64454;51.984;9.838;2023-08-30T03:59:17;14.80;1.00
75821;DHT22;64454;51.984;9.838;2023-08-30T04:01:48;14.80;1.00
75821;DHT22;64454;51.984;9.838;2023-08-30T04:04:16;14.80;1.00
75821;DHT22;64454;51.984;9.838;2023-08-30T04:06:45;14.90;1.00
75821;DHT22;64454;51.984;9.838;2023-08-30T04:09:12;14.90;1.00
75821;DHT22;64454;51.984;9.838;2023-08-30T04:11:41;14.90;1.00
75821;DHT22;64454;51.984;9.838;2023-08-30T04:14:08;14.90;1.00
75821;DHT22;64454;51.984;9.838;2023-08-30T04:16:35;14.90;1.00
75821;DHT22;64454;51.984;9.838;2023-08-30T04:19:04;14.90;1.00
75821;DHT22;64454;51.984;9.838;2023-08-30T04:21:31;14.90;1.00
75821;DHT22;64454;51.984;9.838;2023-08-30T04:23:58;15.00;1.00
75821;DHT22;64454;51.984;9.838;2023-08-30T04:26:25;15.00;1.00
75821;DHT22;64454;51.984;9.838;2023-08-30T04:28:51;15.00;1.00
75821;DHT22;64454;51.984;9.838;2023-08-30T04:31:18;15.10;1.00
75821;DHT22;64454;51.984;9.838;2023-08-30T04:33:45;15.10;1.00
75821;DHT22;64454;51.984;9.838;2023-08-30T04:36:13;15.00;1.00
75821;DHT22;64454;51.984;9.838;2023-08-30T04:38:40;14.90;1.00
75821;DHT22;64454;51.984;9.838;2023-08-30T04:41:07;14.80;1.00
75821;DHT22;64454;51.984;9.838;2023-08-30T04:43:34;14.70;1.00
75821;DHT22;64454;51.984;9.838;2023-08-30T04:46:01;14.60;1.00
75821;DHT22;64454;51.984;9.838;2023-08-30T04:48:28;14.60;1.00
75821;DHT22;64454;51.984;9.838;2023-08-30T04:50:59;14.50;1.00
75821;DHT22;64454;51.984;9.838;2023-08-30T04:53:29;14.40;1.00
75821;DHT22;64454;51.984;9.838;2023-08-30T04:55:57;14.40;1.00
75821;DHT22;64454;51.984;9.838;2023-08-30T04:58:23;14.40;1.00
75821;DHT22;64454;51.984;9.838;2023-08-30T05:00:50;14.50;1.00
75821;DHT22;64454;51.984;9.838;2023-08-30T05:03:17;14.60;1.00
75821;DHT22;64454;51.984;9.838;2023-08-30T05:05:47;14.70;1.00
75821;DHT22;64454;51.984;9.838;2023-08-30T05:08:14;14.70;1.00
75821;DHT22;64454;51.984;9.838;2023-08-30T05:10:42;14.80;1.00
75821;DHT22;64454;51.984;9.838;2023-08-30T05:13:10;14.90;1.00
75821;DHT22;64454;51.984;9.838;2023-08-30T05:15:36;15.10;1.00
75821;DHT22;64454;51.984;9.838;2023-08-30T05:18:04;15.20;1.00
75821;DHT22;64454;51.984;9.838;2023-08-30T05:20:31;15.30;1.00
75821;DHT22;64454;51.984;9.838;2023-08-30T05:22:58;15.40;1.00
75821;DHT22;64454;51.984;9.838;2023-08-30T05:25:26;15.50;1.00
75821;DHT22;64454;51.984;9.838;2023-08-30T05:27:54;15.60;1.00
75821;DHT22;64454;51.984;9.838;2023-08-30T05:30:21;15.80;1.00
75821;DHT22;64454;51.984;9.838;2023-08-30T05:32:48;15.90;1.00
75821;DHT22;64454;51.984;9.838;2023-08-30T05:35:15;16.00;1.00
75821;DHT22;64454;51.984;9.838;2023-08-30T05:37:42;16.10;1.00
75821;DHT22;64454;51.984;9.838;2023-08-30T05:40:09;16.10;1.00
75821;DHT22;64454;51.984;9.838;2023-08-30T05:42:40;16.10;1.00
75821;DHT22;64454;51.984;9.838;2023-08-30T05:45:09;16.20;1.00
75821;DHT22;64454;51.984;9.838;2023-08-30T05:47:36;16.30;1.00
75821;DHT22;64454;51.984;9.838;2023-08-30T05:50:03;16.30;1.00
75821;DHT22;64454;51.984;9.838;2023-08-30T05:52:31;16.40;1.00
75821;DHT22;64454;51.984;9.838;2023-08-30T05:54:58;16.40;1.00
75821;DHT22;64454;51.984;9.838;2023-08-30T05:57:25;16.60;1.00
75821;DHT22;64454;51.984;9.838;2023-08-30T05:59:54;16.60;1.00
75821;DHT22;64454;51.984;9.838;2023-08-30T06:02:22;16.70;1.00
75821;DHT22;64454;51.984;9.838;2023-08-30T06:04:49;16.70;1.00
75821;DHT22;64454;51.984;9.838;2023-08-30T06:07:16;16.70;1.00
75821;DHT22;64454;51.984;9.838;2023-08-30T06:09:43;16.80;1.00
75821;DHT22;64454;51.984;9.838;2023-08-30T06:12:10;16.90;1.00
75821;DHT22;64454;51.984;9.838;2023-08-30T06:14:37;16.90;1.00
75821;DHT22;64454;51.984;9.838;2023-08-30T06:17:04;16.80;1.00
75821;DHT22;64454;51.984;9.838;2023-08-30T06:19:32;16.60;1.00
75821;DHT22;64454;51.984;9.838;2023-08-30T06:21:59;16.40;1.00
75821;DHT22;64454;51.984;9.838;2023-08-30T06:24:26;16.30;1.00
75821;DHT22;64454;51.984;9.838;2023-08-30T06:26:53;16.20;1.00
75821;DHT22;64454;51.984;9.838;2023-08-30T06:29:20;16.20;1.00
75821;DHT22;64454;51.984;9.838;2023-08-30T06:31:47;16.30;1.00
75821;DHT22;64454;51.984;9.838;2023-08-30T06:34:15;16.40;1.00
75821;DHT22;64454;51.984;9.838;2023-08-30T06:36:45;16.40;1.00
75821;DHT22;64454;51.984;9.838;2023-08-30T06:39:12;16.60;1.00
75821;DHT22;64454;51.984;9.838;2023-08-30T06:41:40;16.40;1.00
75821;DHT22;64454;51.984;9.838;2023-08-30T06:44:07;16.40;1.00
75821;DHT22;64454;51.984;9.838;2023-08-30T06:46:34;16.40;1.00
75821;DHT22;64454;51.984;9.838;2023-08-30T06:49:03;16.40;1.00
75821;DHT22;64454;51.984;9.838;2023-08-30T06:51:30;16.50;1.00
75821;DHT22;64454;51.984;9.838;2023-08-30T06:53:58;16.60;1.00
75821;DHT22;64454;51.984;9.838;2023-08-30T06:56:26;16.70;1.00
75821;DHT22;64454;51.984;9.838;2023-08-30T06:58:53;16.70;1.00
75821;DHT22;64454;51.984;9.838;2023-08-30T07:01:19;16.70;1.00
75821;DHT22;64454;51.984;9.838;2023-08-30T07:03:46;16.80;1.00
75821;DHT22;64454;51.984;9.838;2023-08-30T07:06:13;16.80;1.00
75821;DHT22;64454;51.984;9.838;2023-08-30T07:08:40;16.90;1.00
75821;DHT22;64454;51.984;9.838;2023-08-30T07:11:08;17.10;1.00
75821;DHT22;64454;51.984;9.838;2023-08-30T07:13:36;17.20;1.00
75821;DHT22;64454;51.984;9.838;2023-08-30T07:16:03;17.10;1.00
75821;DHT22;64454;51.984;9.838;2023-08-30T07:18:30;17.20;1.00
75821;DHT22;64454;51.984;9.838;2023-08-30T07:20:57;17.30;1.00
75821;DHT22;64454;51.984;9.838;2023-08-30T07:23:24;17.30;1.00
75821;DHT22;64454;51.984;9.838;2023-08-30T07:25:51;17.30;1.00
75821;DHT22;64454;51.984;9.838;2023-08-30T07:28:20;17.40;1.00
75821;DHT22;64454;51.984;9.838;2023-08-30T07:30:46;17.30;1.00
75821;DHT22;64454;51.984;9.838;2023-08-30T07:33:13;17.20;1.00
75821;DHT22;64454;51.984;9.838;2023-08-30T07:35:40;17.40;1.00
75821;DHT22;64454;51.984;9.838;2023-08-30T07:38:07;17.30;1.00
75821;DHT22;64454;51.984;9.838;2023-08-30T07:40:34;17.40;1.00
75821;DHT22;64454;51.984;9.838;2023-08-30T07:43:01;17.40;1.00
75821;DHT22;64454;51.984;9.838;2023-08-30T07:45:30;17.60;1.00
75821;DHT22;64454;51.984;9.838;2023-08-30T07:47:57;17.60;1.00
75821;DHT22;64454;51.984;9.838;2023-08-30T07:50:24;17.80;1.00
75821;DHT22;64454;51.984;9.838;2023-08-30T07:52:51;18.00;1.00
75821;DHT22;64454;51.984;9.838;2023-08-30T07:55:18;18.00;1.00
75821;DHT22;64454;51.984;9.838;2023-08-30T07:57:45;18.00;1.00
75821;DHT22;64454;51.984;9.838;2023-08-30T08:00:13;18.10;1.00
75821;DHT22;64454;51.984;9.838;2023-08-30T08:02:41;18.10;1.00
75821;DHT22;64454;51.984;9.838;2023-08-30T08:05:08;18.20;1.00
75821;DHT22;64454;51.984;9.838;2023-08-30T08:07:38;18.20;1.00
75821;DHT22;64454;51.984;9.838;2023-08-30T08:10:07;18.20;1.00
75821;DHT22;64454;51.984;9.838;2023-08-30T08:12:35;18.20;1.00
75821;DHT22;64454;51.984;9.838;2023-08-30T08:15:02;18.10;1.00
75821;DHT22;64454;51.984;9.838;2023-08-30T08:17:29;18.00;1.00
75821;DHT22;64454;51.984;9.838;2023-08-30T08:19:58;17.90;1.00
75821;DHT22;64454;51.984;9.838;2023-08-30T08:22:24;17.80;1.00
75821;DHT22;64454;51.984;9.838;2023-08-30T08:24:51;17.80;1.00
75821;DHT22;64454;51.984;9.838;2023-08-30T08:27:21;18.00;1.00
75821;DHT22;64454;51.984;9.838;2023-08-30T08:29:48;17.90;1.00
75821;DHT22;64454;51.984;9.838;2023-08-30T08:32:15;17.90;1.00
75821;DHT22;64454;51.984;9.838;2023-08-30T08:34:42;18.10;1.00
75821;DHT22;64454;51.984;9.838;2023-08-30T08:37:11;18.30;1.00
75821;DHT22;64454;51.984;9.838;2023-08-30T08:39:38;18.60;1.00
75821;DHT22;64454;51.984;9.838;2023-08-30T08:42:05;18.60;1.00
75821;DHT22;64454;51.984;9.838;2023-08-30T08:44:32;19.20;1.00
75821;DHT22;64454;51.984;9.838;2023-08-30T08:47:01;20.10;1.00
75821;DHT22;64454;51.984;9.838;2023-08-30T08:49:29;21.00;1.00
75821;DHT22;64454;51.984;9.838;2023-08-30T08:51:57;21.70;1.00
75821;DHT22;64454;51.984;9.838;2023-08-30T08:54:25;21.90;1.00
75821;DHT22;64454;51.984;9.838;2023-08-30T08:56:53;22.40;1.00
75821;DHT22;64454;51.984;9.838;2023-08-30T08:59:21;22.70;1.00
75821;DHT22;64454;51.984;9.838;2023-08-30T09:01:50;22.80;1.00
75821;DHT22;64454;51.984;9.838;2023-08-30T09:04:19;23.80;1.00
75821;DHT22;64454;51.984;9.838;2023-08-30T09:06:47;24.70;1.00
75821;DHT22;64454;51.984;9.838;2023-08-30T09:09:16;25.20;1.00
75821;DHT22;64454;51.984;9.838;2023-08-30T09:11:46;25.50;1.00
75821;DHT22;64454;51.984;9.838;2023-08-30T09:14:14;25.70;1.00
75821;DHT22;64454;51.984;9.838;2023-08-30T09:16:43;25.60;1.00
75821;DHT22;64454;51.984;9.838;2023-08-30T09:19:20;25.70;1.00
75821;DHT22;64454;51.984;9.838;2023-08-30T09:21:51;25.90;1.00
75821;DHT22;64454;51.984;9.838;2023-08-30T09:24:20;25.60;1.00
75821;DHT22;64454;51.984;9.838;2023-08-30T09:26:50;26.10;1.00
75821;DHT22;64454;51.984;9.838;2023-08-30T09:29:20;26.40;1.00
75821;DHT22;64454;51.984;9.838;2023-08-30T09:31:51;27.00;1.00
75821;DHT22;64454;51.984;9.838;2023-08-30T09:34:22;27.90;1.00
75821;DHT22;64454;51.984;9.838;2023-08-30T09:36:50;28.60;1.00
75821;DHT22;64454;51.984;9.838;2023-08-30T09:39:18;29.20;1.00
75821;DHT22;64454;51.984;9.838;2023-08-30T09:41:49;30.00;1.00
75821;DHT22;64454;51.984;9.838;2023-08-30T09:44:18;30.50;1.00
75821;DHT22;64454;51.984;9.838;2023-08-30T09:46:50;31.00;1.00
75821;DHT22;64454;51.984;9.838;2023-08-30T09:49:20;31.40;1.00
75821;DHT22;64454;51.984;9.838;2023-08-30T09:51:49;30.70;1.00
75821;DHT22;64454;51.984;9.838;2023-08-30T09:54:19;30.70;1.00
75821;DHT22;64454;51.984;9.838;2023-08-30T09:56:49;29.50;1.00
75821;DHT22;64454;51.984;9.838;2023-08-30T09:59:19;29.30;1.00
75821;DHT22;64454;51.984;9.838;2023-08-30T10:01:49;29.60;1.00
75821;DHT22;64454;51.984;9.838;2023-08-30T10:04:20;29.80;1.00
75821;DHT22;64454;51.984;9.838;2023-08-30T10:06:47;30.20;1.00
75821;DHT22;64454;51.984;9.838;2023-08-30T10:09:17;29.60;1.00
75821;DHT22;64454;51.984;9.838;2023-08-30T10:11:46;29.90;1.00
75821;DHT22;64454;51.984;9.838;2023-08-30T10:14:16;30.40;1.00
75821;DHT22;64454;51.984;9.838;2023-08-30T10:16:46;31.10;1.00
75821;DHT22;64454;51.984;9.838;2023-08-30T10:19:16;31.00;1.00
75821;DHT22;64454;51.984;9.838;2023-08-30T10:21:56;31.60;1.00
75821;DHT22;64454;51.984;9.838;2023-08-30T10:24:30;31.60;1.00
75821;DHT22;64454;51.984;9.838;2023-08-30T10:27:04;32.10;1.00
75821;DHT22;64454;51.984;9.838;2023-08-30T10:29:35;32.30;1.00
75821;DHT22;64454;51.984;9.838;2023-08-30T10:32:04;32.10;1.00
75821;DHT22;64454;51.984;9.838;2023-08-30T10:34:32;32.10;1.00
75821;DHT22;64454;51.984;9.838;2023-08-30T10:37:01;32.50;1.00
75821;DHT22;64454;51.984;9.838;2023-08-30T10:39:34;32.20;1.00
75821;DHT22;64454;51.984;9.838;2023-08-30T10:42:08;31.20;1.00
75821;DHT22;64454;51.984;9.838;2023-08-30T10:44:46;29.80;1.00
75821;DHT22;64454;51.984;9.838;2023-08-30T10:47:18;28.40;1.00
75821;DHT22;64454;51.984;9.838;2023-08-30T10:49:47;27.80;1.00
75821;DHT22;64454;51.984;9.838;2023-08-30T10:52:14;27.70;1.00
75821;DHT22;64454;51.984;9.838;2023-08-30T10:54:41;27.00;1.00
75821;DHT22;64454;51.984;9.838;2023-08-30T10:57:13;26.30;1.00
75821;DHT22;64454;51.984;9.838;2023-08-30T11:02:34;24.60;1.00
75821;DHT22;64454;51.984;9.838;2023-08-30T11:05:02;24.20;1.00
75821;DHT22;64454;51.984;9.838;2023-08-30T11:07:31;23.90;1.00
75821;DHT22;64454;51.984;9.838;2023-08-30T11:09:59;24.60;1.00
75821;DHT22;64454;51.984;9.838;2023-08-30T11:12:26;26.20;1.00
75821;DHT22;64454;51.984;9.838;2023-08-30T11:14:56;27.70;1.00
75821;DHT22;64454;51.984;9.838;2023-08-30T11:17:23;28.80;1.00
75821;DHT22;64454;51.984;9.838;2023-08-30T11:19:57;28.90;1.00
75821;DHT22;64454;51.984;9.838;2023-08-30T11:22:31;29.50;1.00
75821;DHT22;64454;51.984;9.838;2023-08-30T11:24:59;29.10;1.00
75821;DHT22;64454;51.984;9.838;2023-08-30T11:27:26;28.00;1.00
75821;DHT22;64454;51.984;9.838;2023-08-30T11:29:52;27.10;1.00
75821;DHT22;64454;51.984;9.838;2023-08-30T11:32:21;26.80;1.00
75821;DHT22;64454;51.984;9.838;2023-08-30T11:34:55;26.30;1.00
75821;DHT22;64454;51.984;9.838;2023-08-30T11:37:23;25.50;1.00
75821;DHT22;64454;51.984;9.838;2023-08-30T11:39:53;24.50;1.00
75821;DHT22;64454;51.984;9.838;2023-08-30T11:42:21;23.80;1.00
75821;DHT22;64454;51.984;9.838;2023-08-30T11:44:49;23.30;1.00
75821;DHT22;64454;51.984;9.838;2023-08-30T11:47:22;22.80;1.00
75821;DHT22;64454;51.984;9.838;2023-08-30T11:49:52;22.60;1.00
75821;DHT22;64454;51.984;9.838;2023-08-30T11:52:21;22.50;1.00
75821;DHT22;64454;51.984;9.838;2023-08-30T11:54:50;22.70;1.00
75821;DHT22;64454;51.984;9.838;2023-08-30T11:57:17;22.70;1.00
75821;DHT22;64454;51.984;9.838;2023-08-30T11:59:44;22.80;1.00
75821;DHT22;64454;51.984;9.838;2023-08-30T12:02:13;23.00;1.00
75821;DHT22;64454;51.984;9.838;2023-08-30T12:04:45;23.20;1.00
75821;DHT22;64454;51.984;9.838;2023-08-30T12:07:21;24.70;1.00
75821;DHT22;64454;51.984;9.838;2023-08-30T12:09:49;26.40;1.00
75821;DHT22;64454;51.984;9.838;2023-08-30T12:12:16;27.00;1.00
75821;DHT22;64454;51.984;9.838;2023-08-30T12:14:43;27.00;1.00
75821;DHT22;64454;51.984;9.838;2023-08-30T12:17:10;26.80;1.00
75821;DHT22;64454;51.984;9.838;2023-08-30T12:19:37;27.00;1.00
75821;DHT22;64454;51.984;9.838;2023-08-30T12:22:07;26.90;1.00
75821;DHT22;64454;51.984;9.838;2023-08-30T12:24:41;26.40;1.00
75821;DHT22;64454;51.984;9.838;2023-08-30T12:27:09;26.40;1.00
75821;DHT22;64454;51.984;9.838;2023-08-30T12:29:36;26.40;1.00
75821;DHT22;64454;51.984;9.838;2023-08-30T12:32:03;26.00;1.00
75821;DHT22;64454;51.984;9.838;2023-08-30T12:34:31;25.40;1.00
75821;DHT22;64454;51.984;9.838;2023-08-30T12:36:58;24.80;1.00
75821;DHT22;64454;51.984;9.838;2023-08-30T12:39:27;24.30;1.00
75821;DHT22;64454;51.984;9.838;2023-08-30T12:41:54;23.70;1.00
75821;DHT22;64454;51.984;9.838;2023-08-30T12:44:21;24.30;1.00
75821;DHT22;64454;51.984;9.838;2023-08-30T12:46:48;25.80;1.00
75821;DHT22;64454;51.984;9.838;2023-08-30T12:49:16;27.60;1.00
75821;DHT22;64454;51.984;9.838;2023-08-30T12:51:44;28.70;1.00
75821;DHT22;64454;51.984;9.838;2023-08-30T12:54:11;29.60;1.00
75821;DHT22;64454;51.984;9.838;2023-08-30T12:56:39;28.60;1.00
75821;DHT22;64454;51.984;9.838;2023-08-30T12:59:06;27.60;1.00
75821;DHT22;64454;51.984;9.838;2023-08-30T13:01:34;26.80;1.00
75821;DHT22;64454;51.984;9.838;2023-08-30T13:04:00;26.20;1.00
75821;DHT22;64454;51.984;9.838;2023-08-30T13:06:28;24.90;1.00
75821;DHT22;64454;51.984;9.838;2023-08-30T13:08:55;24.30;1.00
75821;DHT22;64454;51.984;9.838;2023-08-30T13:11:22;23.70;1.00
75821;DHT22;64454;51.984;9.838;2023-08-30T13:13:53;23.40;1.00
75821;DHT22;64454;51.984;9.838;2023-08-30T13:16:20;23.00;1.00
75821;DHT22;64454;51.984;9.838;2023-08-30T13:18:47;22.70;1.00
75821;DHT22;64454;51.984;9.838;2023-08-30T13:21:13;22.80;1.00
75821;DHT22;64454;51.984;9.838;2023-08-30T13:23:40;23.00;1.00
75821;DHT22;64454;51.984;9.838;2023-08-30T13:26:07;23.10;1.00
75821;DHT22;64454;51.984;9.838;2023-08-30T13:28:35;23.30;1.00
75821;DHT22;64454;51.984;9.838;2023-08-30T13:31:06;23.70;1.00
75821;DHT22;64454;51.984;9.838;2023-08-30T13:33:33;23.90;1.00
75821;DHT22;64454;51.984;9.838;2023-08-30T13:36:00;24.30;1.00
75821;DHT22;64454;51.984;9.838;2023-08-30T13:38:28;24.70;1.00
75821;DHT22;64454;51.984;9.838;2023-08-30T13:40:58;24.90;1.00
75821;DHT22;64454;51.984;9.838;2023-08-30T13:43:25;25.30;1.00
75821;DHT22;64454;51.984;9.838;2023-08-30T13:45:57;25.50;1.00
75821;DHT22;64454;51.984;9.838;2023-08-30T13:48:25;25.70;1.00
75821;DHT22;64454;51.984;9.838;2023-08-30T13:50:52;25.40;1.00
75821;DHT22;64454;51.984;9.838;2023-08-30T13:53:19;25.30;1.00
75821;DHT22;64454;51.984;9.838;2023-08-30T13:55:46;25.00;1.00
75821;DHT22;64454;51.984;9.838;2023-08-30T13:58:14;25.00;1.00
75821;DHT22;64454;51.984;9.838;2023-08-30T14:00:41;25.10;1.00
75821;DHT22;64454;51.984;9.838;2023-08-30T14:03:08;25.00;1.00
75821;DHT22;64454;51.984;9.838;2023-08-30T14:05:36;25.10;1.00
75821;DHT22;64454;51.984;9.838;2023-08-30T14:08:06;25.20;1.00
75821;DHT22;64454;51.984;9.838;2023-08-30T14:10:33;25.00;1.00
75821;DHT22;64454;51.984;9.838;2023-08-30T14:12:59;25.00;1.00
75821;DHT22;64454;51.984;9.838;2023-08-30T14:15:27;24.80;1.00
75821;DHT22;64454;51.984;9.838;2023-08-30T14:17:54;24.50;1.00
75821;DHT22;64454;51.984;9.838;2023-08-30T14:20:20;24.00;1.00
75821;DHT22;64454;51.984;9.838;2023-08-30T14:22:49;24.00;1.00
75821;DHT22;64454;51.984;9.838;2023-08-30T14:25:16;24.00;1.00
75821;DHT22;64454;51.984;9.838;2023-08-30T14:27:42;23.90;1.00
75821;DHT22;64454;51.984;9.838;2023-08-30T14:30:10;23.90;1.00
75821;DHT22;64454;51.984;9.838;2023-08-30T14:32:37;23.60;1.00
75821;DHT22;64454;51.984;9.838;2023-08-30T14:35:05;23.50;1.00
75821;DHT22;64454;51.984;9.838;2023-08-30T14:37:32;23.60;1.00
75821;DHT22;64454;51.984;9.838;2023-08-30T14:40:02;23.80;1.00
75821;DHT22;64454;51.984;9.838;2023-08-30T14:42:30;23.90;1.00
75821;DHT22;64454;51.984;9.838;2023-08-30T14:44:57;23.80;1.00
75821;DHT22;64454;51.984;9.838;2023-08-30T14:47:24;23.90;1.00
75821;DHT22;64454;51.984;9.838;2023-08-30T14:49:51;23.80;1.00
75821;DHT22;64454;51.984;9.838;2023-08-30T14:52:18;23.80;1.00
75821;DHT22;64454;51.984;9.838;2023-08-30T14:54:45;23.80;1.00
75821;DHT22;64454;51.984;9.838;2023-08-30T14:57:13;23.80;1.00
75821;DHT22;64454;51.984;9.838;2023-08-30T14:59:40;23.80;1.00
75821;DHT22;64454;51.984;9.838;2023-08-30T15:02:07;23.80;1.00
75821;DHT22;64454;51.984;9.838;2023-08-30T15:04:34;23.70;1.00
75821;DHT22;64454;51.984;9.838;2023-08-30T15:07:01;23.50;1.00
75821;DHT22;64454;51.984;9.838;2023-08-30T15:09:29;23.20;1.00
75821;DHT22;64454;51.984;9.838;2023-08-30T15:11:56;23.00;1.00
75821;DHT22;64454;51.984;9.838;2023-08-30T15:14:25;22.90;1.00
75821;DHT22;64454;51.984;9.838;2023-08-30T15:16:52;22.80;1.00
75821;DHT22;64454;51.984;9.838;2023-08-30T15:19:20;22.70;1.00
75821;DHT22;64454;51.984;9.838;2023-08-30T15:21:47;22.60;1.00
75821;DHT22;64454;51.984;9.838;2023-08-30T15:24:15;22.50;1.00
75821;DHT22;64454;51.984;9.838;2023-08-30T15:26:44;22.60;1.00
75821;DHT22;64454;51.984;9.838;2023-08-30T15:29:11;22.60;1.00
75821;DHT22;64454;51.984;9.838;2023-08-30T15:31:39;22.30;1.00
75821;DHT22;64454;51.984;9.838;2023-08-30T15:34:06;22.20;1.00
75821;DHT22;64454;51.984;9.838;2023-08-30T15:36:33;22.10;1.00
75821;DHT22;64454;51.984;9.838;2023-08-30T15:39:00;21.80;1.00
75821;DHT22;64454;51.984;9.838;2023-08-30T15:41:27;21.90;1.00
75821;DHT22;64454;51.984;9.838;2023-08-30T15:43:54;22.00;1.00
75821;DHT22;64454;51.984;9.838;2023-08-30T15:46:21;22.10;1.00
75821;DHT22;64454;51.984;9.838;2023-08-30T15:48:49;22.20;1.00
75821;DHT22;64454;51.984;9.838;2023-08-30T15:51:16;22.30;1.00
75821;DHT22;64454;51.984;9.838;2023-08-30T15:53:43;22.30;1.00